sensor_id;sensor_type;location;lat;lon;timestamp;pressure;altitude;pressure_sealevel;temperature;humidity
57102;BME280;42982;54.558;18.508;2022-08-01T00:00:38;100551.78;;;16.55;nan
57102;BME280;42982;54.558;18.508;2022-08-01T00:01:41;100562.31;;;16.56;nan
57102;BME280;42982;54.558;18.508;2022-08-01T00:02:43;100552.91;;;16.54;nan
57102;BME280;42982;54.558;18.508;2022-08-01T00:03:50;100552.41;;;16.52;nan
57102;BME280;42982;54.558;18.508;2022-08-01T00:04:54;100548.09;;;16.51;nan
57102;BME280;42982;54.558;18.508;2022-08-01T00:05:56;100552.25;;;16.48;nan
57102;BME280;42982;54.558;18.508;2022-08-01T00:06:59;100554.00;;;16.44;nan
57102;BME280;42982;54.558;18.508;2022-08-01T00:08:03;100547.31;;;16.41;nan
57102;BME280;42982;54.558;18.508;2022-08-01T00:09:05;100548.44;;;16.40;nan
57102;BME280;42982;54.558;18.508;2022-08-01T00:10:13;100545.72;;;16.40;nan
57102;BME280;42982;54.558;18.508;2022-08-01T00:11:16;100551.13;;;16.40;nan
57102;BME280;42982;54.558;18.508;2022-08-01T00:12:17;100546.00;;;16.39;nan
57102;BME280;42982;54.558;18.508;2022-08-01T00:13:21;100546.00;;;16.39;nan
57102;BME280;42982;54.558;18.508;2022-08-01T00:14:23;100546.34;;;16.37;nan
57102;BME280;42982;54.558;18.508;2022-08-01T00:15:25;100545.84;;;16.35;nan
57102;BME280;42982;54.558;18.508;2022-08-01T00:16:29;100546.00;;;16.39;nan
57102;BME280;42982;54.558;18.508;2022-08-01T00:17:35;100540.59;;;16.39;nan
57102;BME280;42982;54.558;18.508;2022-08-01T00:18:39;100547.63;;;16.40;nan
57102;BME280;42982;54.558;18.508;2022-08-01T00:19:41;100540.91;;;16.37;nan
57102;BME280;42982;54.558;18.508;2022-08-01T00:20:43;100544.25;;;16.34;nan
57102;BME280;42982;54.558;18.508;2022-08-01T00:21:46;100546.97;;;16.34;nan
57102;BME280;42982;54.558;18.508;2022-08-01T00:22:47;100548.09;;;16.33;nan
57102;BME280;42982;54.558;18.508;2022-08-01T00:23:49;100542.19;;;16.31;nan
57102;BME280;42982;54.558;18.508;2022-08-01T00:24:51;100554.31;;;16.34;nan
57102;BME280;42982;54.558;18.508;2022-08-01T00:25:56;100553.53;;;16.33;nan
57102;BME280;42982;54.558;18.508;2022-08-01T00:26:59;100553.19;;;16.35;nan
57102;BME280;42982;54.558;18.508;2022-08-01T00:28:03;100551.44;;;16.30;nan
57102;BME280;42982;54.558;18.508;2022-08-01T00:29:10;100548.75;;;16.30;nan
57102;BME280;42982;54.558;18.508;2022-08-01T00:30:11;100551.91;;;16.32;nan
57102;BME280;42982;54.558;18.508;2022-08-01T00:31:14;100538.34;;;16.32;nan
57102;BME280;42982;54.558;18.508;2022-08-01T00:32:17;100542.19;;;16.31;nan
57102;BME280;42982;54.558;18.508;2022-08-01T00:33:19;100545.53;;;16.28;nan
57102;BME280;42982;54.558;18.508;2022-08-01T00:34:24;100544.75;;;16.28;nan
57102;BME280;42982;54.558;18.508;2022-08-01T00:35:25;100545.38;;;16.25;nan
57102;BME280;42982;54.558;18.508;2022-08-01T00:36:27;100539.16;;;16.24;nan
57102;BME280;42982;54.558;18.508;2022-08-01T00:37:31;100539.78;;;16.21;nan
57102;BME280;42982;54.558;18.508;2022-08-01T00:38:33;100539.00;;;16.20;nan
57102;BME280;42982;54.558;18.508;2022-08-01T00:39:36;100537.38;;;16.19;nan
57102;BME280;42982;54.558;18.508;2022-08-01T00:40:37;100532.75;;;16.20;nan
57102;BME280;42982;54.558;18.508;2022-08-01T00:41:44;100535.94;;;16.22;nan
57102;BME280;42982;54.558;18.508;2022-08-01T00:42:46;100534.81;;;16.23;nan
57102;BME280;42982;54.558;18.508;2022-08-01T00:43:48;100541.53;;;16.26;nan
57102;BME280;42982;54.558;18.508;2022-08-01T00:44:49;100539.63;;;16.26;nan
57102;BME280;42982;54.558;18.508;2022-08-01T00:45:54;100529.88;;;16.25;nan
57102;BME280;42982;54.558;18.508;2022-08-01T00:47:03;100519.84;;;16.26;nan
57102;BME280;42982;54.558;18.508;2022-08-01T00:48:08;100524.47;;;16.25;nan
57102;BME280;42982;54.558;18.508;2022-08-01T00:49:12;100526.69;;;16.23;nan
57102;BME280;42982;54.558;18.508;2022-08-01T00:50:14;100529.09;;;16.25;nan
57102;BME280;42982;54.558;18.508;2022-08-01T00:51:19;100531.81;;;16.25;nan
57102;BME280;42982;54.558;18.508;2022-08-01T00:52:20;100527.50;;;16.24;nan
57102;BME280;42982;54.558;18.508;2022-08-01T00:53:23;100519.66;;;16.22;nan
57102;BME280;42982;54.558;18.508;2022-08-01T00:54:27;100526.69;;;16.23;nan
57102;BME280;42982;54.558;18.508;2022-08-01T00:55:32;100520.16;;;16.24;nan
57102;BME280;42982;54.558;18.508;2022-08-01T00:56:36;100517.91;;;16.26;nan
57102;BME280;42982;54.558;18.508;2022-08-01T00:57:40;100523.34;;;16.26;nan
57102;BME280;42982;54.558;18.508;2022-08-01T00:58:45;100516.47;;;16.20;nan
57102;BME280;42982;54.558;18.508;2022-08-01T00:59:48;100528.31;;;16.24;nan
57102;BME280;42982;54.558;18.508;2022-08-01T01:00:52;100528.31;;;16.24;nan
57102;BME280;42982;54.558;18.508;2022-08-01T01:01:59;100518.25;;;16.25;nan
57102;BME280;42982;54.558;18.508;2022-08-01T01:03:04;100529.56;;;16.27;nan
57102;BME280;42982;54.558;18.508;2022-08-01T01:04:09;100527.66;;;16.27;nan
57102;BME280;42982;54.558;18.508;2022-08-01T01:05:13;100528.47;;;16.28;nan
57102;BME280;42982;54.558;18.508;2022-08-01T01:06:30;100517.59;;;16.28;nan
57102;BME280;42982;54.558;18.508;2022-08-01T01:08:04;100520.00;;;16.29;nan
57102;BME280;42982;54.558;18.508;2022-08-01T01:10:24;100528.75;;;16.26;nan
57102;BME280;42982;54.558;18.508;2022-08-01T01:13:04;100522.88;;;16.24;nan
57102;BME280;42982;54.558;18.508;2022-08-01T01:14:12;100523.03;;;16.28;nan
57102;BME280;42982;54.558;18.508;2022-08-01T01:15:28;100529.25;;;16.28;nan
57102;BME280;42982;54.558;18.508;2022-08-01T01:16:36;100520.78;;;16.30;nan
57102;BME280;42982;54.558;18.508;2022-08-01T01:17:48;100525.41;;;16.29;nan
57102;BME280;42982;54.558;18.508;2022-08-01T01:19:01;100526.22;;;16.30;nan
57102;BME280;42982;54.558;18.508;2022-08-01T01:20:13;100520.63;;;16.26;nan
57102;BME280;42982;54.558;18.508;2022-08-01T01:22:46;100517.91;;;16.26;nan
57102;BME280;42982;54.558;18.508;2022-08-01T01:23:56;100518.72;;;16.27;nan
57102;BME280;42982;54.558;18.508;2022-08-01T01:26:36;100525.59;;;16.24;nan
57102;BME280;42982;54.558;18.508;2022-08-01T01:27:57;100523.66;;;16.25;nan
57102;BME280;42982;54.558;18.508;2022-08-01T01:29:49;100512.81;;;16.25;nan
57102;BME280;42982;54.558;18.508;2022-08-01T01:30:53;100519.66;;;16.22;nan
57102;BME280;42982;54.558;18.508;2022-08-01T01:32:03;100512.66;;;16.21;nan
57102;BME280;42982;54.558;18.508;2022-08-01T01:33:06;100514.88;;;16.19;nan
57102;BME280;42982;54.558;18.508;2022-08-01T01:34:15;100514.25;;;16.22;nan
57102;BME280;42982;54.558;18.508;2022-08-01T01:35:22;100507.22;;;16.21;nan
57102;BME280;42982;54.558;18.508;2022-08-01T01:36:26;100513.44;;;16.21;nan
57102;BME280;42982;54.558;18.508;2022-08-01T01:37:34;100508.03;;;16.21;nan
57102;BME280;42982;54.558;18.508;2022-08-01T01:38:42;100520.78;;;16.21;nan
57102;BME280;42982;54.558;18.508;2022-08-01T01:39:48;100511.03;;;16.20;nan
57102;BME280;42982;54.558;18.508;2022-08-01T01:40:52;100510.56;;;16.18;nan
57102;BME280;42982;54.558;18.508;2022-08-01T01:41:59;100516.00;;;16.18;nan
57102;BME280;42982;54.558;18.508;2022-08-01T01:43:09;100514.72;;;16.15;nan
57102;BME280;42982;54.558;18.508;2022-08-01T01:44:13;100513.94;;;16.15;nan
57102;BME280;42982;54.558;18.508;2022-08-01T01:45:21;100507.69;;;16.14;nan
57102;BME280;42982;54.558;18.508;2022-08-01T01:46:28;100510.72;;;16.13;nan
57102;BME280;42982;54.558;18.508;2022-08-01T01:47:33;100512.31;;;16.14;nan
57102;BME280;42982;54.558;18.508;2022-08-01T01:48:38;100510.09;;;16.16;nan
57102;BME280;42982;54.558;18.508;2022-08-01T01:49:44;100507.69;;;16.14;nan
57102;BME280;42982;54.558;18.508;2022-08-01T01:50:48;100512.31;;;16.14;nan
57102;BME280;42982;54.558;18.508;2022-08-01T01:51:54;100510.72;;;16.13;nan
57102;BME280;42982;54.558;18.508;2022-08-01T01:52:57;100519.66;;;16.13;nan
57102;BME280;42982;54.558;18.508;2022-08-01T01:54:03;100515.00;;;16.14;nan
57102;BME280;42982;54.558;18.508;2022-08-01T01:55:09;100522.06;;;16.15;nan
57102;BME280;42982;54.558;18.508;2022-08-01T01:56:14;100513.94;;;16.15;nan
57102;BME280;42982;54.558;18.508;2022-08-01T01:57:18;100513.94;;;16.15;nan
57102;BME280;42982;54.558;18.508;2022-08-01T01:58:24;100505.28;;;16.13;nan
57102;BME280;42982;54.558;18.508;2022-08-01T01:59:34;100509.94;;;16.12;nan
57102;BME280;42982;54.558;18.508;2022-08-01T02:00:40;100518.84;;;16.13;nan
57102;BME280;42982;54.558;18.508;2022-08-01T02:01:44;100505.63;;;16.11;nan
57102;BME280;42982;54.558;18.508;2022-08-01T02:02:51;100509.94;;;16.12;nan
57102;BME280;42982;54.558;18.508;2022-08-01T02:03:56;100512.63;;;16.12;nan
57102;BME280;42982;54.558;18.508;2022-08-01T02:04:58;100511.34;;;16.10;nan
57102;BME280;42982;54.558;18.508;2022-08-01T02:06:00;100509.13;;;16.12;nan
57102;BME280;42982;54.558;18.508;2022-08-01T02:07:06;100509.13;;;16.12;nan
57102;BME280;42982;54.558;18.508;2022-08-01T02:08:12;100512.31;;;16.14;nan
57102;BME280;42982;54.558;18.508;2022-08-01T02:09:19;100516.13;;;16.13;nan
57102;BME280;42982;54.558;18.508;2022-08-01T02:10:22;100512.31;;;16.14;nan
57102;BME280;42982;54.558;18.508;2022-08-01T02:11:26;100508.81;;;16.13;nan
57102;BME280;42982;54.558;18.508;2022-08-01T02:12:29;100518.84;;;16.13;nan
57102;BME280;42982;54.558;18.508;2022-08-01T02:13:37;100519.66;;;16.13;nan
57102;BME280;42982;54.558;18.508;2022-08-01T02:14:46;100507.50;;;16.11;nan
57102;BME280;42982;54.558;18.508;2022-08-01T02:15:48;100503.22;;;16.10;nan
57102;BME280;42982;54.558;18.508;2022-08-01T02:16:54;100509.75;;;16.09;nan
57102;BME280;42982;54.558;18.508;2022-08-01T02:18:00;100510.22;;;16.11;nan
57102;BME280;42982;54.558;18.508;2022-08-01T02:19:04;100506.41;;;16.12;nan
57102;BME280;42982;54.558;18.508;2022-08-01T02:20:06;100504.50;;;16.12;nan
57102;BME280;42982;54.558;18.508;2022-08-01T02:21:12;100502.09;;;16.11;nan
57102;BME280;42982;54.558;18.508;2022-08-01T02:22:24;100499.06;;;16.12;nan
57102;BME280;42982;54.558;18.508;2022-08-01T02:23:32;100510.72;;;16.13;nan
57102;BME280;42982;54.558;18.508;2022-08-01T02:24:39;100508.81;;;16.13;nan
57102;BME280;42982;54.558;18.508;2022-08-01T02:25:48;100509.94;;;16.12;nan
57102;BME280;42982;54.558;18.508;2022-08-01T02:26:53;100519.97;;;16.12;nan
57102;BME280;42982;54.558;18.508;2022-08-01T02:29:07;100513.13;;;16.14;nan
57102;BME280;42982;54.558;18.508;2022-08-01T02:30:13;100505.78;;;16.15;nan
57102;BME280;42982;54.558;18.508;2022-08-01T02:31:20;100518.84;;;16.13;nan
57102;BME280;42982;54.558;18.508;2022-08-01T02:32:34;100509.13;;;16.12;nan
57102;BME280;42982;54.558;18.508;2022-08-01T02:33:40;100508.81;;;16.13;nan
57102;BME280;42982;54.558;18.508;2022-08-01T02:34:46;100509.59;;;16.14;nan
57102;BME280;42982;54.558;18.508;2022-08-01T02:35:56;100512.31;;;16.14;nan
57102;BME280;42982;54.558;18.508;2022-08-01T02:37:03;100507.69;;;16.14;nan
57102;BME280;42982;54.558;18.508;2022-08-01T02:38:10;100513.44;;;16.13;nan
57102;BME280;42982;54.558;18.508;2022-08-01T02:39:16;100508.50;;;16.15;nan
57102;BME280;42982;54.558;18.508;2022-08-01T02:40:22;100503.06;;;16.15;nan
57102;BME280;42982;54.558;18.508;2022-08-01T02:41:26;100512.31;;;16.14;nan
57102;BME280;42982;54.558;18.508;2022-08-01T02:42:32;100502.09;;;16.11;nan
57102;BME280;42982;54.558;18.508;2022-08-01T02:43:42;100506.72;;;16.10;nan
57102;BME280;42982;54.558;18.508;2022-08-01T02:44:49;100507.06;;;16.09;nan
57102;BME280;42982;54.558;18.508;2022-08-01T02:45:59;100516.78;;;16.10;nan
57102;BME280;42982;54.558;18.508;2022-08-01T02:47:02;100506.25;;;16.08;nan
57102;BME280;42982;54.558;18.508;2022-08-01T02:48:10;100511.34;;;16.10;nan
57102;BME280;42982;54.558;18.508;2022-08-01T02:49:19;100505.44;;;16.08;nan
57102;BME280;42982;54.558;18.508;2022-08-01T02:50:23;100511.19;;;16.06;nan
57102;BME280;42982;54.558;18.508;2022-08-01T02:51:30;100512.94;;;16.11;nan
57102;BME280;42982;54.558;18.508;2022-08-01T02:52:33;100503.72;;;16.12;nan
57102;BME280;42982;54.558;18.508;2022-08-01T02:53:42;100506.72;;;16.10;nan
57102;BME280;42982;54.558;18.508;2022-08-01T02:54:47;100510.84;;;16.08;nan
57102;BME280;42982;54.558;18.508;2022-08-01T02:55:52;100507.06;;;16.09;nan
57102;BME280;42982;54.558;18.508;2022-08-01T02:56:57;100512.78;;;16.07;nan
57102;BME280;42982;54.558;18.508;2022-08-01T02:58:00;100513.56;;;16.08;nan
57102;BME280;42982;54.558;18.508;2022-08-01T02:59:06;100512.78;;;16.07;nan
57102;BME280;42982;54.558;18.508;2022-08-01T03:00:11;100506.25;;;16.08;nan
57102;BME280;42982;54.558;18.508;2022-08-01T03:01:17;100510.84;;;16.08;nan
57102;BME280;42982;54.558;18.508;2022-08-01T03:02:23;100511.97;;;16.07;nan
57102;BME280;42982;54.558;18.508;2022-08-01T03:03:28;100510.41;;;16.06;nan
57102;BME280;42982;54.558;18.508;2022-08-01T03:04:33;100497.28;;;16.08;nan
57102;BME280;42982;54.558;18.508;2022-08-01T03:05:37;100505.94;;;16.10;nan
57102;BME280;42982;54.558;18.508;2022-08-01T03:06:43;100504.50;;;16.12;nan
57102;BME280;42982;54.558;18.508;2022-08-01T03:07:48;100504.16;;;16.14;nan
57102;BME280;42982;54.558;18.508;2022-08-01T03:08:51;100502.75;;;16.16;nan
57102;BME280;42982;54.558;18.508;2022-08-01T03:09:56;100502.44;;;16.18;nan
57102;BME280;42982;54.558;18.508;2022-08-01T03:11:02;100503.53;;;16.17;nan
57102;BME280;42982;54.558;18.508;2022-08-01T03:12:15;100508.97;;;16.17;nan
57102;BME280;42982;54.558;18.508;2022-08-01T03:13:18;100506.75;;;16.19;nan
57102;BME280;42982;54.558;18.508;2022-08-01T03:14:21;100501.81;;;16.21;nan
57102;BME280;42982;54.558;18.508;2022-08-01T03:15:26;100503.41;;;16.22;nan
57102;BME280;42982;54.558;18.508;2022-08-01T03:16:35;100507.69;;;16.23;nan
57102;BME280;42982;54.558;18.508;2022-08-01T03:17:40;100502.75;;;16.25;nan
57102;BME280;42982;54.558;18.508;2022-08-01T03:18:45;100501.63;;;16.26;nan
57102;BME280;42982;54.558;18.508;2022-08-01T03:19:50;100505.31;;;16.30;nan
57102;BME280;42982;54.558;18.508;2022-08-01T03:20:54;100509.94;;;16.30;nan
57102;BME280;42982;54.558;18.508;2022-08-01T03:21:59;100506.91;;;16.31;nan
57102;BME280;42982;54.558;18.508;2022-08-01T03:23:12;100507.41;;;16.33;nan
57102;BME280;42982;54.558;18.508;2022-08-01T03:24:18;100506.78;;;16.36;nan
57102;BME280;42982;54.558;18.508;2022-08-01T03:25:22;100506.94;;;16.40;nan
57102;BME280;42982;54.558;18.508;2022-08-01T03:26:32;100509.47;;;16.45;nan
57102;BME280;42982;54.558;18.508;2022-08-01T03:27:38;100508.97;;;16.52;nan
57102;BME280;42982;54.558;18.508;2022-08-01T03:28:44;100506.13;;;16.57;nan
57102;BME280;42982;54.558;18.508;2022-08-01T03:29:50;100505.34;;;16.65;nan
57102;BME280;42982;54.558;18.508;2022-08-01T03:30:56;100508.22;;;16.77;nan
57102;BME280;42982;54.558;18.508;2022-08-01T03:32:03;100504.03;;;16.88;nan
57102;BME280;42982;54.558;18.508;2022-08-01T03:33:07;100509.78;;;16.96;nan
57102;BME280;42982;54.558;18.508;2022-08-01T03:34:11;100510.09;;;17.03;nan
57102;BME280;42982;54.558;18.508;2022-08-01T03:35:16;100513.75;;;17.16;nan
57102;BME280;42982;54.558;18.508;2022-08-01T03:36:20;100507.16;;;17.25;nan
57102;BME280;42982;54.558;18.508;2022-08-01T03:37:30;100504.44;;;17.34;nan
57102;BME280;42982;54.558;18.508;2022-08-01T03:38:37;100501.22;;;17.41;nan
57102;BME280;42982;54.558;18.508;2022-08-01T03:39:47;100511.88;;;17.46;nan
57102;BME280;42982;54.558;18.508;2022-08-01T03:40:56;100507.84;;;17.52;nan
57102;BME280;42982;54.558;18.508;2022-08-01T03:42:08;100508.63;;;17.61;nan
57102;BME280;42982;54.558;18.508;2022-08-01T03:43:27;100505.06;;;17.69;nan
57102;BME280;42982;54.558;18.508;2022-08-01T03:44:35;100514.16;;;17.73;nan
57102;BME280;42982;54.558;18.508;2022-08-01T03:45:48;100512.72;;;17.85;nan
57102;BME280;42982;54.558;18.508;2022-08-01T03:47:03;100520.00;;;17.93;nan
57102;BME280;42982;54.558;18.508;2022-08-01T03:48:18;100520.28;;;18.00;nan
57102;BME280;42982;54.558;18.508;2022-08-01T03:49:26;100526.69;;;18.04;nan
57102;BME280;42982;54.558;18.508;2022-08-01T03:50:32;100524.22;;;18.11;nan
57102;BME280;42982;54.558;18.508;2022-08-01T03:51:38;100526.09;;;18.19;nan
57102;BME280;42982;54.558;18.508;2022-08-01T03:52:46;100523.31;;;18.28;nan
57102;BME280;42982;54.558;18.508;2022-08-01T03:53:51;100521.66;;;18.36;nan
57102;BME280;42982;54.558;18.508;2022-08-01T03:54:58;100525.13;;;18.45;nan
57102;BME280;42982;54.558;18.508;2022-08-01T03:56:02;100519.94;;;18.52;nan
57102;BME280;42982;54.558;18.508;2022-08-01T03:57:06;100525.63;;;18.59;nan
57102;BME280;42982;54.558;18.508;2022-08-01T03:58:11;100523.19;;;18.66;nan
57102;BME280;42982;54.558;18.508;2022-08-01T03:59:16;100523.91;;;18.75;nan
57102;BME280;42982;54.558;18.508;2022-08-01T04:00:19;100524.19;;;18.83;nan
57102;BME280;42982;54.558;18.508;2022-08-01T04:01:22;100526.69;;;18.88;nan
57102;BME280;42982;54.558;18.508;2022-08-01T04:02:26;100530.00;;;18.93;nan
57102;BME280;42982;54.558;18.508;2022-08-01T04:03:29;100530.13;;;18.97;nan
57102;BME280;42982;54.558;18.508;2022-08-01T04:04:33;100529.44;;;19.00;nan
57102;BME280;42982;54.558;18.508;2022-08-01T04:05:36;100522.53;;;19.03;nan
57102;BME280;42982;54.558;18.508;2022-08-01T04:06:41;100530.16;;;19.09;nan
57102;BME280;42982;54.558;18.508;2022-08-01T04:07:50;100531.53;;;19.15;nan
57102;BME280;42982;54.558;18.508;2022-08-01T04:08:59;100526.44;;;19.26;nan
57102;BME280;42982;54.558;18.508;2022-08-01T04:10:04;100533.06;;;19.37;nan
57102;BME280;42982;54.558;18.508;2022-08-01T04:11:09;100532.50;;;19.44;nan
57102;BME280;42982;54.558;18.508;2022-08-01T04:12:11;100520.94;;;19.47;nan
57102;BME280;42982;54.558;18.508;2022-08-01T04:13:13;100523.34;;;19.49;nan
57102;BME280;42982;54.558;18.508;2022-08-01T04:14:15;100524.78;;;19.46;nan
57102;BME280;42982;54.558;18.508;2022-08-01T04:15:18;100523.19;;;19.45;nan
57102;BME280;42982;54.558;18.508;2022-08-01T04:16:24;100525.47;;;19.43;nan
57102;BME280;42982;54.558;18.508;2022-08-01T04:17:27;100521.59;;;19.44;nan
57102;BME280;42982;54.558;18.508;2022-08-01T04:18:29;100516.81;;;19.41;nan
57102;BME280;42982;54.558;18.508;2022-08-01T04:19:31;100515.91;;;19.37;nan
57102;BME280;42982;54.558;18.508;2022-08-01T04:20:33;100525.78;;;19.29;nan
57102;BME280;42982;54.558;18.508;2022-08-01T04:21:36;100516.78;;;19.16;nan
57102;BME280;42982;54.558;18.508;2022-08-01T04:22:39;100514.03;;;19.04;nan
57102;BME280;42982;54.558;18.508;2022-08-01T04:23:43;100514.44;;;18.94;nan
57102;BME280;42982;54.558;18.508;2022-08-01T04:24:53;100514.88;;;18.84;nan
57102;BME280;42982;54.558;18.508;2022-08-01T04:25:59;100514.16;;;18.74;nan
57102;BME280;42982;54.558;18.508;2022-08-01T04:27:09;100517.25;;;18.64;nan
57102;BME280;42982;54.558;18.508;2022-08-01T04:28:14;100517.81;;;18.58;nan
57102;BME280;42982;54.558;18.508;2022-08-01T04:29:19;100515.28;;;18.52;nan
57102;BME280;42982;54.558;18.508;2022-08-01T04:30:27;100516.84;;;18.53;nan
57102;BME280;42982;54.558;18.508;2022-08-01T04:31:33;100512.06;;;18.50;nan
57102;BME280;42982;54.558;18.508;2022-08-01T04:32:38;100526.50;;;18.51;nan
57102;BME280;42982;54.558;18.508;2022-08-01T04:33:44;100518.53;;;18.46;nan
57102;BME280;42982;54.558;18.508;2022-08-01T04:34:53;100510.25;;;18.42;nan
57102;BME280;42982;54.558;18.508;2022-08-01T04:36:01;100521.31;;;18.37;nan
57102;BME280;42982;54.558;18.508;2022-08-01T04:37:09;100518.47;;;18.34;nan
57102;BME280;42982;54.558;18.508;2022-08-01T04:38:19;100516.88;;;18.33;nan
57102;BME280;42982;54.558;18.508;2022-08-01T04:39:24;100519.13;;;18.30;nan
57102;BME280;42982;54.558;18.508;2022-08-01T04:40:28;100521.41;;;18.28;nan
57102;BME280;42982;54.558;18.508;2022-08-01T04:41:34;100524.44;;;18.27;nan
57102;BME280;42982;54.558;18.508;2022-08-01T04:42:40;100523.66;;;18.26;nan
57102;BME280;42982;54.558;18.508;2022-08-01T04:43:42;100515.78;;;18.25;nan
57102;BME280;42982;54.558;18.508;2022-08-01T04:44:45;100521.09;;;18.21;nan
57102;BME280;42982;54.558;18.508;2022-08-01T04:45:47;100522.25;;;18.20;nan
57102;BME280;42982;54.558;18.508;2022-08-01T04:46:51;100519.53;;;18.20;nan
57102;BME280;42982;54.558;18.508;2022-08-01T04:47:59;100514.56;;;18.22;nan
57102;BME280;42982;54.558;18.508;2022-08-01T04:49:02;100518.50;;;18.25;nan
57102;BME280;42982;54.558;18.508;2022-08-01T04:50:10;100522.06;;;18.25;nan
57102;BME280;42982;54.558;18.508;2022-08-01T04:51:17;100522.72;;;18.22;nan
57102;BME280;42982;54.558;18.508;2022-08-01T04:52:20;100521.09;;;18.21;nan
57102;BME280;42982;54.558;18.508;2022-08-01T04:53:22;100512.50;;;18.19;nan
57102;BME280;42982;54.558;18.508;2022-08-01T04:54:27;100524.31;;;18.23;nan
57102;BME280;42982;54.558;18.508;2022-08-01T04:55:30;100518.19;;;18.26;nan
57102;BME280;42982;54.558;18.508;2022-08-01T04:56:33;100526.63;;;18.34;nan
57102;BME280;42982;54.558;18.508;2022-08-01T04:57:37;100523.72;;;18.39;nan
57102;BME280;42982;54.558;18.508;2022-08-01T04:58:43;100521.25;;;18.46;nan
57102;BME280;42982;54.558;18.508;2022-08-01T04:59:45;100523.91;;;18.55;nan
57102;BME280;42982;54.558;18.508;2022-08-01T05:00:47;100521.78;;;18.60;nan
57102;BME280;42982;54.558;18.508;2022-08-01T05:01:49;100517.94;;;18.61;nan
57102;BME280;42982;54.558;18.508;2022-08-01T05:02:51;100526.28;;;18.56;nan
57102;BME280;42982;54.558;18.508;2022-08-01T05:03:53;100520.72;;;18.52;nan
57102;BME280;42982;54.558;18.508;2022-08-01T05:04:58;100522.19;;;18.50;nan
57102;BME280;42982;54.558;18.508;2022-08-01T05:06:01;100519.81;;;18.48;nan
57102;BME280;42982;54.558;18.508;2022-08-01T05:07:07;100522.84;;;18.47;nan
57102;BME280;42982;54.558;18.508;2022-08-01T05:08:09;100518.22;;;18.47;nan
57102;BME280;42982;54.558;18.508;2022-08-01T05:09:11;100523.78;;;18.51;nan
57102;BME280;42982;54.558;18.508;2022-08-01T05:10:19;100526.97;;;18.53;nan
57102;BME280;42982;54.558;18.508;2022-08-01T05:11:21;100524.03;;;18.58;nan
57102;BME280;42982;54.558;18.508;2022-08-01T05:12:22;100531.34;;;18.66;nan
57102;BME280;42982;54.558;18.508;2022-08-01T05:13:28;100524.38;;;18.78;nan
57102;BME280;42982;54.558;18.508;2022-08-01T05:14:30;100533.31;;;18.99;nan
57102;BME280;42982;54.558;18.508;2022-08-01T05:15:35;100533.28;;;19.20;nan
57102;BME280;42982;54.558;18.508;2022-08-01T05:16:40;100531.56;;;19.28;nan
57102;BME280;42982;54.558;18.508;2022-08-01T05:17:45;100531.38;;;19.33;nan
57102;BME280;42982;54.558;18.508;2022-08-01T05:18:50;100533.44;;;19.36;nan
57102;BME280;42982;54.558;18.508;2022-08-01T05:19:53;100533.66;;;19.43;nan
57102;BME280;42982;54.558;18.508;2022-08-01T05:20:55;100529.91;;;19.48;nan
57102;BME280;42982;54.558;18.508;2022-08-01T05:22:01;100527.28;;;19.39;nan
57102;BME280;42982;54.558;18.508;2022-08-01T05:23:07;100535.31;;;19.35;nan
57102;BME280;42982;54.558;18.508;2022-08-01T05:24:08;100526.25;;;19.31;nan
57102;BME280;42982;54.558;18.508;2022-08-01T05:25:10;100527.03;;;19.32;nan
57102;BME280;42982;54.558;18.508;2022-08-01T05:26:12;100522.97;;;19.38;nan
57102;BME280;42982;54.558;18.508;2022-08-01T05:27:15;100525.69;;;19.50;nan
57102;BME280;42982;54.558;18.508;2022-08-01T05:28:17;100525.94;;;19.57;nan
57102;BME280;42982;54.558;18.508;2022-08-01T05:29:19;100523.47;;;19.64;nan
57102;BME280;42982;54.558;18.508;2022-08-01T05:30:20;100523.72;;;19.72;nan
57102;BME280;42982;54.558;18.508;2022-08-01T05:31:26;100525.06;;;19.78;nan
57102;BME280;42982;54.558;18.508;2022-08-01T05:32:28;100523.50;;;19.77;nan
57102;BME280;42982;54.558;18.508;2022-08-01T05:33:31;100521.41;;;19.61;nan
57102;BME280;42982;54.558;18.508;2022-08-01T05:34:32;100527.53;;;19.58;nan
57102;BME280;42982;54.558;18.508;2022-08-01T05:35:36;100528.78;;;19.61;nan
57102;BME280;42982;54.558;18.508;2022-08-01T05:36:43;100521.53;;;19.65;nan
57102;BME280;42982;54.558;18.508;2022-08-01T05:37:46;100520.06;;;19.67;nan
57102;BME280;42982;54.558;18.508;2022-08-01T05:38:48;100523.03;;;19.75;nan
57102;BME280;42982;54.558;18.508;2022-08-01T05:39:52;100529.59;;;19.98;nan
57102;BME280;42982;54.558;18.508;2022-08-01T05:40:55;100521.63;;;20.18;nan
57102;BME280;42982;54.558;18.508;2022-08-01T05:41:59;100527.81;;;20.43;nan
57102;BME280;42982;54.558;18.508;2022-08-01T05:43:04;100525.16;;;20.58;nan
57102;BME280;42982;54.558;18.508;2022-08-01T05:44:07;100517.63;;;20.68;nan
57102;BME280;42982;54.558;18.508;2022-08-01T05:45:09;100521.28;;;20.72;nan
57102;BME280;42982;54.558;18.508;2022-08-01T05:46:12;100520.56;;;20.75;nan
57102;BME280;42982;54.558;18.508;2022-08-01T05:47:14;100518.50;;;20.84;nan
57102;BME280;42982;54.558;18.508;2022-08-01T05:48:15;100520.19;;;21.04;nan
57102;BME280;42982;54.558;18.508;2022-08-01T05:49:19;100544.50;;;21.22;nan
57102;BME280;42982;54.558;18.508;2022-08-01T05:50:21;100534.97;;;21.32;nan
57102;BME280;42982;54.558;18.508;2022-08-01T05:51:28;100534.66;;;21.49;nan
57102;BME280;42982;54.558;18.508;2022-08-01T05:52:36;100501.81;;;21.65;nan
57102;BME280;42982;54.558;18.508;2022-08-01T05:53:38;100512.66;;;21.77;nan